ADDS METAR Data INFO
IDs: Format: Raw Decoded Include TAF

Data at: 1415 UTC 12 Dec 2017

KSAT 121351Z 01010KT 10SM FEW050 FEW250 11/M04 A3037 RMK AO2 SLP273 T01061039